Time;durP1;ratioP1;P1;durP2;ratioP2;P2;SDS_P1;SDS_P2;PMS_P1;PMS_P2;Temp;Humidity;BMP_temperature;BMP_pressure;BME280_temperature;BME280_humidity;BME280_pressure;Samples;Min_cycle;Max_cycle;Signal;HPM_P1;HPM_P2
2022/11/03 00:01:33;;;;;;;41.22;11.90;;;;;;;;;;5043201;28;20080;-40
2022/11/03 00:03:59;;;;;;;53.45;12.60;;;;;;;;;;5041282;28;20037;-41
2022/11/03 00:06:26;;;;;;;58.42;12.73;;;;;;;;;;5043602;28;20099;-41
2022/11/03 00:08:56;;;;;;;40.53;11.98;;;;;;;;;;5042103;28;20481;-42
2022/11/03 00:11:23;;;;;;;43.45;11.45;;;;;;;;;;5041403;28;20413;-41
2022/11/03 00:13:49;;;;;;;57.58;13.07;;;;;;;;;;5044308;28;20045;-40
2022/11/03 00:16:16;;;;;;;45.00;11.90;;;;;;;;;;5045444;28;20037;-41
2022/11/03 00:18:42;;;;;;;46.60;11.98;;;;;;;;;;5042183;28;20056;-41
2022/11/03 00:21:10;;;;;;;81.32;15.25;;;;;;;;;;5043319;28;20039;-40
2022/11/03 00:23:38;;;;;;;53.75;12.80;;;;;;;;;;5042809;28;20033;-40
2022/11/03 00:26:13;;;;;;;52.17;12.55;;;;;;;;;;5043889;28;20037;-41
2022/11/03 00:28:40;;;;;;;47.17;11.27;;;;;;;;;;5042681;28;20049;-41
2022/11/03 00:31:11;;;;;;;46.92;10.98;;;;;;;;;;5046067;28;20042;-42
2022/11/03 00:33:39;;;;;;;62.13;13.00;;;;;;;;;;5041213;28;20037;-43
2022/11/03 00:36:06;;;;;;;50.80;12.48;;;;;;;;;;5043480;28;20102;-40
2022/11/03 00:38:33;;;;;;;32.60;10.40;;;;;;;;;;5042482;28;20049;-41
2022/11/03 00:41:00;;;;;;;44.75;11.75;;;;;;;;;;5044927;28;20120;-40
2022/11/03 00:43:27;;;;;;;44.03;11.55;;;;;;;;;;5044148;28;20416;-41
2022/11/03 00:45:54;;;;;;;51.33;12.30;;;;;;;;;;5044988;28;20039;-40
2022/11/03 00:48:33;;;;;;;38.97;10.68;;;;;;;;;;5041326;28;20072;-42
2022/11/03 00:51:09;;;;;;;47.00;11.95;;;;;;;;;;5036484;28;20087;-40
2022/11/03 00:53:36;;;;;;;54.90;11.95;;;;;;;;;;5042241;28;20111;-40
2022/11/03 00:56:03;;;;;;;51.85;11.30;;;;;;;;;;5044671;28;20048;-40
2022/11/03 00:58:30;;;;;;;60.60;12.60;;;;;;;;;;5046299;28;20112;-40
2022/11/03 01:01:00;;;;;;;42.10;11.13;;;;;;;;;;5048290;28;20033;-40
2022/11/03 01:03:27;;;;;;;44.38;11.95;;;;;;;;;;5045325;28;20052;-40
2022/11/03 01:08:38;;;;;;;47.72;11.27;;;;;;;;;;5047082;28;20056;-42
2022/11/03 01:13:50;;;;;;;53.75;12.07;;;;;;;;;;5048362;28;20072;-40
2022/11/03 01:16:16;;;;;;;41.65;11.27;;;;;;;;;;5050159;28;20059;-40
2022/11/03 01:18:43;;;;;;;59.75;12.43;;;;;;;;;;5045843;28;20047;-43
2022/11/03 01:21:09;;;;;;;48.40;11.45;;;;;;;;;;5043924;28;20037;-43
2022/11/03 01:23:36;;;;;;;48.53;11.80;;;;;;;;;;5046445;28;20048;-40
2022/11/03 01:26:04;;;;;;;63.83;12.20;;;;;;;;;;5048460;28;20045;-40
2022/11/03 01:28:34;;;;;;;50.03;11.05;;;;;;;;;;5047596;28;20037;-39
2022/11/03 01:31:05;;;;;;;43.78;10.05;;;;;;;;;;5048325;28;20033;-40
2022/11/03 01:33:31;;;;;;;40.70;9.68;;;;;;;;;;5044701;28;20115;-40
2022/11/03 01:35:58;;;;;;;54.13;10.77;;;;;;;;;;5043884;28;20029;-41
2022/11/03 01:38:24;;;;;;;31.88;9.60;;;;;;;;;;5047602;28;20053;-40
2022/11/03 01:40:51;;;;;;;42.08;10.27;;;;;;;;;;5050256;28;20033;-40
2022/11/03 01:43:19;;;;;;;37.22;9.93;;;;;;;;;;5048089;28;20041;-39
2022/11/03 01:45:48;;;;;;;38.97;10.63;;;;;;;;;;5047002;28;20382;-41
2022/11/03 01:48:16;;;;;;;68.97;11.55;;;;;;;;;;5046874;28;20483;-40
2022/11/03 01:50:44;;;;;;;55.70;10.48;;;;;;;;;;5044084;28;20049;-40
2022/11/03 01:53:11;;;;;;;37.50;10.73;;;;;;;;;;5048538;28;20038;-42
2022/11/03 01:55:40;;;;;;;41.20;10.10;;;;;;;;;;5046445;28;20046;-40
2022/11/03 01:58:15;;;;;;;64.25;11.82;;;;;;;;;;5046949;28;20043;-41
2022/11/03 02:00:42;;;;;;;49.92;10.60;;;;;;;;;;5046930;28;20040;-43
2022/11/03 02:03:09;;;;;;;42.13;9.18;;;;;;;;;;5044584;28;20088;-40
2022/11/03 02:05:36;;;;;;;44.95;9.65;;;;;;;;;;5044100;28;20037;-39
2022/11/03 02:08:06;;;;;;;55.28;10.00;;;;;;;;;;5046978;28;20426;-41
2022/11/03 02:10:35;;;;;;;60.28;11.48;;;;;;;;;;5044286;28;20036;-40
2022/11/03 02:13:04;;;;;;;32.90;8.95;;;;;;;;;;5047366;28;20040;-40
2022/11/03 02:15:32;;;;;;;32.70;9.52;;;;;;;;;;5043813;28;20041;-41
2022/11/03 02:17:59;;;;;;;60.47;10.57;;;;;;;;;;5041965;28;20033;-41
2022/11/03 02:20:27;;;;;;;28.38;8.65;;;;;;;;;;5045309;28;20060;-40
2022/11/03 02:22:53;;;;;;;54.20;10.27;;;;;;;;;;5046572;28;20563;-47
2022/11/03 02:25:32;;;;;;;52.25;10.25;;;;;;;;;;5046191;28;20048;-41
2022/11/03 02:27:59;;;;;;;44.75;9.65;;;;;;;;;;5046668;28;20044;-40
2022/11/03 02:30:26;;;;;;;50.63;9.80;;;;;;;;;;5042881;28;20041;-39
2022/11/03 02:32:53;;;;;;;57.35;10.52;;;;;;;;;;5044422;28;20041;-40
2022/11/03 02:35:23;;;;;;;45.08;9.70;;;;;;;;;;5045936;28;20044;-41
2022/11/03 02:37:52;;;;;;;42.97;10.27;;;;;;;;;;5046155;28;20041;-40
2022/11/03 02:40:22;;;;;;;32.90;8.55;;;;;;;;;;5048686;28;20560;-41
2022/11/03 02:42:50;;;;;;;39.80;9.30;;;;;;;;;;5044930;28;20048;-41
2022/11/03 02:45:17;;;;;;;56.08;10.40;;;;;;;;;;5042755;28;20390;-42
2022/11/03 02:47:45;;;;;;;55.28;10.90;;;;;;;;;;5044372;28;20033;-41
2022/11/03 02:50:12;;;;;;;35.03;8.63;;;;;;;;;;5046664;28;20049;-41
2022/11/03 02:52:40;;;;;;;42.65;9.18;;;;;;;;;;5046108;28;20041;-41
2022/11/03 02:55:10;;;;;;;46.47;10.30;;;;;;;;;;5047235;28;20037;-42
2022/11/03 02:57:40;;;;;;;45.03;8.75;;;;;;;;;;5044146;28;20033;-41
2022/11/03 03:00:08;;;;;;;70.28;11.80;;;;;;;;;;5042449;28;20424;-43
2022/11/03 03:02:37;;;;;;;46.33;9.57;;;;;;;;;;5044819;28;20386;-41
2022/11/03 03:05:07;;;;;;;32.70;8.27;;;;;;;;;;5047300;28;20099;-42
2022/11/03 03:07:36;;;;;;;39.15;9.30;;;;;;;;;;5049236;28;20111;-40
2022/11/03 03:10:08;;;;;;;52.15;10.65;;;;;;;;;;5044256;28;20036;-40
2022/11/03 03:12:36;;;;;;;46.40;10.07;;;;;;;;;;5044954;28;20492;-41
2022/11/03 03:15:05;;;;;;;40.22;8.88;;;;;;;;;;5041834;28;20033;-41
2022/11/03 03:17:31;;;;;;;25.92;7.82;;;;;;;;;;5044661;28;20045;-42
2022/11/03 03:20:01;;;;;;;55.10;10.57;;;;;;;;;;5044907;28;20053;-41
2022/11/03 03:22:41;;;;;;;36.90;8.40;;;;;;;;;;5044009;28;20067;-41
2022/11/03 03:25:28;;;;;;;59.10;11.40;;;;;;;;;;5046582;28;20060;-42
2022/11/03 03:28:01;;;;;;;56.15;10.18;;;;;;;;;;5044411;28;20516;-41
2022/11/03 03:30:29;;;;;;;46.78;8.82;;;;;;;;;;5042251;28;20029;-41
2022/11/03 03:32:58;;;;;;;41.90;7.97;;;;;;;;;;5043647;28;20041;-44
2022/11/03 03:35:25;;;;;;;45.45;9.05;;;;;;;;;;5044772;28;20416;-42
2022/11/03 03:37:56;;;;;;;44.85;9.63;;;;;;;;;;5044682;28;20046;-40
2022/11/03 03:40:36;;;;;;;37.47;8.95;;;;;;;;;;5044903;28;20056;-41
2022/11/03 03:43:04;;;;;;;50.33;9.95;;;;;;;;;;5045585;28;20451;-39
2022/11/03 03:45:31;;;;;;;43.45;9.77;;;;;;;;;;5041893;28;20569;-42
2022/11/03 03:47:58;;;;;;;44.17;11.13;;;;;;;;;;5043951;28;20108;-40
2022/11/03 03:50:25;;;;;;;45.17;9.73;;;;;;;;;;5044563;28;20044;-41
2022/11/03 03:53:06;;;;;;;48.63;11.40;;;;;;;;;;5044323;28;20041;-41
2022/11/03 03:55:34;;;;;;;40.22;8.73;;;;;;;;;;5044270;28;20416;-49
2022/11/03 03:58:02;;;;;;;57.30;10.73;;;;;;;;;;5044934;28;20045;-40
2022/11/03 04:00:28;;;;;;;31.48;8.82;;;;;;;;;;5041987;28;20409;-43
2022/11/03 04:02:56;;;;;;;43.33;9.13;;;;;;;;;;5043676;28;20515;-40
2022/11/03 04:05:22;;;;;;;43.60;9.55;;;;;;;;;;5044766;28;20052;-40
2022/11/03 04:07:49;;;;;;;37.78;9.52;;;;;;;;;;5045250;28;20132;-40
2022/11/03 04:10:16;;;;;;;41.40;9.68;;;;;;;;;;5042165;28;20041;-39
2022/11/03 04:23:59;;;;;;;52.60;10.98;;;;;;;;;;5003541;28;20038;-39
2022/11/03 04:26:26;;;;;;;35.42;9.57;;;;;;;;;;5007007;28;20129;-41
2022/11/03 04:28:53;;;;;;;59.80;11.98;;;;;;;;;;5005383;28;20046;-40
2022/11/03 04:31:20;;;;;;;42.58;11.65;;;;;;;;;;5004328;28;20038;-40
2022/11/03 04:33:46;;;;;;;52.53;11.95;;;;;;;;;;5005745;28;20037;-40
2022/11/03 04:36:16;;;;;;;55.05;12.40;;;;;;;;;;5003767;28;20129;-39
2022/11/03 04:38:43;;;;;;;74.43;13.35;;;;;;;;;;5003342;28;20054;-39
2022/11/03 04:41:16;;;;;;;36.97;10.75;;;;;;;;;;5004471;28;20097;-41
2022/11/03 04:43:44;;;;;;;45.13;10.68;;;;;;;;;;5006098;28;20516;-39
2022/11/03 04:46:12;;;;;;;50.80;11.65;;;;;;;;;;5003886;28;20514;-39
2022/11/03 04:48:38;;;;;;;33.40;10.00;;;;;;;;;;5005892;28;20061;-39
2022/11/03 04:51:25;;;;;;;54.65;11.77;;;;;;;;;;5006149;28;20049;-39
2022/11/03 04:54:02;;;;;;;71.68;13.27;;;;;;;;;;5018886;28;20118;-39
2022/11/03 04:56:29;;;;;;;39.90;11.80;;;;;;;;;;5044503;28;20131;-38
2022/11/03 04:58:56;;;;;;;47.47;12.68;;;;;;;;;;5044236;28;20767;-39
2022/11/03 05:01:23;;;;;;;42.13;11.68;;;;;;;;;;5043715;28;20444;-39
2022/11/03 05:03:53;;;;;;;48.85;13.57;;;;;;;;;;5046080;28;20148;-39
2022/11/03 05:06:21;;;;;;;53.65;12.52;;;;;;;;;;5041353;28;20233;-39
2022/11/03 05:09:06;;;;;;;56.90;13.60;;;;;;;;;;5041568;28;20125;-39
2022/11/03 05:11:40;;;;;;;47.42;12.43;;;;;;;;;;5040965;28;20045;-39
2022/11/03 05:14:13;;;;;;;56.92;14.13;;;;;;;;;;5043146;28;20041;-39
2022/11/03 05:16:39;;;;;;;52.70;12.82;;;;;;;;;;5041633;28;20045;-39
2022/11/03 05:19:13;;;;;;;46.15;12.15;;;;;;;;;;5043994;28;20033;-39
2022/11/03 05:21:40;;;;;;;44.50;12.48;;;;;;;;;;5042714;28;20139;-39
2022/11/03 05:24:12;;;;;;;67.07;14.70;;;;;;;;;;5041442;28;20036;-40
2022/11/03 05:26:44;;;;;;;46.60;12.25;;;;;;;;;;5040338;28;20068;-39
2022/11/03 05:29:16;;;;;;;56.03;12.75;;;;;;;;;;5044664;28;20072;-40
2022/11/03 05:31:45;;;;;;;46.07;11.93;;;;;;;;;;5042200;28;20117;-41
2022/11/03 05:34:27;;;;;;;46.90;12.30;;;;;;;;;;5043936;28;20037;-41
2022/11/03 05:36:53;;;;;;;50.20;13.25;;;;;;;;;;5042548;28;20045;-40
2022/11/03 05:39:20;;;;;;;48.03;12.95;;;;;;;;;;5041439;28;20037;-55
2022/11/03 05:41:46;;;;;;;62.85;13.73;;;;;;;;;;5040166;28;20052;-39
2022/11/03 05:44:16;;;;;;;46.35;12.55;;;;;;;;;;5016831;28;20485;-40
2022/11/03 05:46:42;;;;;;;57.40;14.38;;;;;;;;;;5046468;28;20045;-41
2022/11/03 05:49:09;;;;;;;68.07;13.93;;;;;;;;;;5046977;28;20514;-39
2022/11/03 05:51:39;;;;;;;41.10;12.27;;;;;;;;;;5045285;28;20033;-40
2022/11/03 05:54:15;;;;;;;89.35;16.73;;;;;;;;;;5039837;28;20045;-40
2022/11/03 05:56:45;;;;;;;65.40;14.35;;;;;;;;;;5040795;28;20046;-40
2022/11/03 05:59:12;;;;;;;62.67;13.88;;;;;;;;;;5047965;28;20049;-39
2022/11/03 06:01:39;;;;;;;68.03;15.35;;;;;;;;;;5046402;28;20063;-39
2022/11/03 06:04:26;;;;;;;61.50;14.32;;;;;;;;;;5046804;28;20716;-40
2022/11/03 06:06:54;;;;;;;46.53;12.02;;;;;;;;;;5045240;28;20064;-39
2022/11/03 06:09:22;;;;;;;49.75;11.77;;;;;;;;;;5042599;28;20385;-45
2022/11/03 06:11:50;;;;;;;61.60;14.02;;;;;;;;;;5043583;28;20420;-43
2022/11/03 06:14:18;;;;;;;45.13;12.32;;;;;;;;;;5047764;28;20527;-42
2022/11/03 06:16:51;;;;;;;47.95;12.38;;;;;;;;;;5045280;28;20068;-40
2022/11/03 06:19:23;;;;;;;44.13;12.05;;;;;;;;;;5047280;28;20511;-41
2022/11/03 06:21:50;;;;;;;66.97;14.52;;;;;;;;;;5045261;28;20451;-40
2022/11/03 06:24:18;;;;;;;41.40;12.23;;;;;;;;;;5044703;28;20033;-41
2022/11/03 06:26:45;;;;;;;55.28;13.65;;;;;;;;;;5043462;28;20045;-45
2022/11/03 06:29:14;;;;;;;53.30;13.43;;;;;;;;;;5047389;28;20044;-41
2022/11/03 06:31:42;;;;;;;39.88;12.43;;;;;;;;;;5046556;28;20049;-43
2022/11/03 06:34:18;;;;;;;46.55;12.27;;;;;;;;;;5046771;28;20104;-44
2022/11/03 06:36:44;;;;;;;51.90;12.27;;;;;;;;;;5042654;28;20048;-42
2022/11/03 06:39:22;;;;;;;45.20;12.50;;;;;;;;;;5044651;28;20043;-47
2022/11/03 06:41:48;;;;;;;65.07;13.65;;;;;;;;;;5041177;28;20048;-44
2022/11/03 06:44:37;;;;;;;42.72;11.30;;;;;;;;;;5047010;28;20041;-40
2022/11/03 06:47:33;;;;;;;59.83;13.68;;;;;;;;;;5046371;28;20056;-40
2022/11/03 06:50:00;;;;;;;57.72;12.00;;;;;;;;;;5029294;28;20053;-46
2022/11/03 06:52:31;;;;;;;43.67;11.38;;;;;;;;;;5046279;28;20131;-41
2022/11/03 06:55:04;;;;;;;53.08;12.25;;;;;;;;;;5045385;28;20067;-43
2022/11/03 06:57:32;;;;;;;46.72;12.30;;;;;;;;;;5042956;28;20587;-41
2022/11/03 06:59:58;;;;;;;58.78;13.75;;;;;;;;;;5044998;28;20037;-43
2022/11/03 07:02:51;;;;;;;58.05;13.50;;;;;;;;;;5041404;28;20049;-40
2022/11/03 07:05:25;;;;;;;49.53;12.43;;;;;;;;;;5045556;28;20584;-42
2022/11/03 07:07:53;;;;;;;34.72;12.05;;;;;;;;;;5045578;28;20045;-43
2022/11/03 07:10:22;;;;;;;60.85;12.48;;;;;;;;;;5043487;28;20034;-41
2022/11/03 07:12:49;;;;;;;62.45;13.07;;;;;;;;;;5045603;28;20132;-44
2022/11/03 07:15:19;;;;;;;60.42;12.73;;;;;;;;;;5048453;28;20034;-43
2022/11/03 07:17:45;;;;;;;79.63;15.38;;;;;;;;;;5043445;28;20037;-43
2022/11/03 07:20:13;;;;;;;44.05;11.93;;;;;;;;;;5045596;28;20049;-43
2022/11/03 07:22:39;;;;;;;50.33;11.15;;;;;;;;;;5045186;28;20509;-41
2022/11/03 07:25:12;;;;;;;49.90;11.82;;;;;;;;;;5045863;28;20039;-42
2022/11/03 07:27:39;;;;;;;43.53;10.65;;;;;;;;;;5042784;28;20094;-40
2022/11/03 07:30:12;;;;;;;55.05;12.00;;;;;;;;;;5034046;28;20055;-41
2022/11/03 07:32:38;;;;;;;44.15;10.40;;;;;;;;;;5042475;28;20056;-41
2022/11/03 07:35:17;;;;;;;38.25;9.82;;;;;;;;;;5046063;28;20037;-44
2022/11/03 07:37:45;;;;;;;46.72;10.68;;;;;;;;;;5044614;28;20459;-43
2022/11/03 07:40:22;;;;;;;47.20;12.15;;;;;;;;;;5046027;28;20041;-44
2022/11/03 07:42:49;;;;;;;48.47;10.88;;;;;;;;;;5042896;28;20044;-43
2022/11/03 07:45:34;;;;;;;38.95;9.38;;;;;;;;;;5041808;28;20048;-45
2022/11/03 07:48:06;;;;;;;69.55;12.27;;;;;;;;;;5042632;28;20408;-44
2022/11/03 07:50:33;;;;;;;32.53;9.38;;;;;;;;;;5042116;28;20049;-41
2022/11/03 07:52:59;;;;;;;30.00;8.02;;;;;;;;;;5044771;28;20053;-43
2022/11/03 07:55:26;;;;;;;36.63;9.23;;;;;;;;;;5047322;28;20538;-45
2022/11/03 07:57:52;;;;;;;44.47;9.95;;;;;;;;;;5043364;28;20779;-41
2022/11/03 08:00:21;;;;;;;39.85;10.13;;;;;;;;;;5045279;28;20045;-45
2022/11/03 08:02:50;;;;;;;69.80;12.10;;;;;;;;;;5042084;28;20030;-43
2022/11/03 08:05:17;;;;;;;48.35;10.32;;;;;;;;;;5042557;28;20456;-41
2022/11/03 08:07:48;;;;;;;51.90;9.02;;;;;;;;;;5045982;28;20037;-43
2022/11/03 08:10:15;;;;;;;52.78;11.15;;;;;;;;;;5043274;28;20041;-43
2022/11/03 08:12:41;;;;;;;32.83;6.97;;;;;;;;;;5044016;28;20083;-41
2022/11/03 08:15:08;;;;;;;37.67;7.93;;;;;;;;;;5044810;28;20037;-42
2022/11/03 08:17:34;;;;;;;49.00;9.35;;;;;;;;;;5043253;28;20914;-42
2022/11/03 08:20:01;;;;;;;54.53;9.30;;;;;;;;;;5044126;28;20123;-41
2022/11/03 08:22:28;;;;;;;20.55;7.35;;;;;;;;;;5045675;28;20048;-40
2022/11/03 08:24:55;;;;;;;49.78;9.77;;;;;;;;;;5043900;28;20041;-43
2022/11/03 08:27:21;;;;;;;35.35;7.43;;;;;;;;;;5042766;28;20100;-43
2022/11/03 08:29:48;;;;;;;57.63;9.73;;;;;;;;;;5040992;28;20560;-45
2022/11/03 08:32:15;;;;;;;49.03;9.15;;;;;;;;;;5045210;28;20053;-41
2022/11/03 08:34:41;;;;;;;30.48;7.72;;;;;;;;;;5044041;28;20145;-44
2022/11/03 08:37:07;;;;;;;37.65;7.20;;;;;;;;;;5044454;28;20060;-44
2022/11/03 08:39:35;;;;;;;79.20;10.80;;;;;;;;;;5040132;28;20037;-42
2022/11/03 08:42:01;;;;;;;55.50;9.32;;;;;;;;;;5042598;28;20049;-41
2022/11/03 08:44:28;;;;;;;41.50;7.88;;;;;;;;;;5043256;28;20033;-43
2022/11/03 08:46:54;;;;;;;46.10;8.48;;;;;;;;;;5044280;28;20051;-43
2022/11/03 08:49:21;;;;;;;39.63;6.90;;;;;;;;;;5046054;28;20037;-43
2022/11/03 08:51:47;;;;;;;42.60;8.88;;;;;;;;;;5041876;28;20040;-43
2022/11/03 08:54:14;;;;;;;47.38;8.20;;;;;;;;;;5040420;28;20033;-42
2022/11/03 08:56:40;;;;;;;38.65;7.53;;;;;;;;;;5043577;28;20048;-42
2022/11/03 08:59:06;;;;;;;37.35;6.78;;;;;;;;;;5044746;28;20175;-44
2022/11/03 09:01:33;;;;;;;40.47;7.75;;;;;;;;;;5044455;28;20044;-40
2022/11/03 09:04:00;;;;;;;44.17;7.70;;;;;;;;;;5042443;28;20029;-43
2022/11/03 09:06:26;;;;;;;33.33;7.05;;;;;;;;;;5041818;28;20401;-45
2022/11/03 09:08:53;;;;;;;36.45;7.22;;;;;;;;;;5040440;28;20489;-42
2022/11/03 09:11:39;;;;;;;64.57;8.70;;;;;;;;;;5042066;28;20088;-41
2022/11/03 09:14:06;;;;;;;58.22;8.23;;;;;;;;;;5044606;28;20038;-45
2022/11/03 09:16:32;;;;;;;48.85;7.65;;;;;;;;;;5044372;28;20051;-44
2022/11/03 09:18:59;;;;;;;48.28;7.72;;;;;;;;;;5044252;28;20080;-41
2022/11/03 09:21:25;;;;;;;41.78;6.53;;;;;;;;;;5045968;28;20049;-42
2022/11/03 09:23:52;;;;;;;70.72;9.68;;;;;;;;;;5044196;28;20118;-43
2022/11/03 09:26:19;;;;;;;30.58;5.75;;;;;;;;;;5048713;28;20489;-45
2022/11/03 09:28:45;;;;;;;34.00;6.57;;;;;;;;;;5047171;28;20041;-42
2022/11/03 09:31:12;;;;;;;58.88;8.32;;;;;;;;;;5048262;28;20558;-45
2022/11/03 09:33:38;;;;;;;35.03;6.55;;;;;;;;;;5044341;28;20033;-42
2022/11/03 09:36:05;;;;;;;46.65;7.05;;;;;;;;;;5045650;28;20051;-41
2022/11/03 09:38:31;;;;;;;51.95;7.75;;;;;;;;;;5045708;28;20057;-43
2022/11/03 09:40:58;;;;;;;43.90;6.90;;;;;;;;;;5047092;28;20037;-42
2022/11/03 09:43:25;;;;;;;29.35;5.88;;;;;;;;;;5050127;28;20064;-41
2022/11/03 09:45:52;;;;;;;61.65;7.68;;;;;;;;;;5045058;28;20043;-41
2022/11/03 09:48:18;;;;;;;28.80;5.97;;;;;;;;;;5043398;28;20037;-43
2022/11/03 09:50:47;;;;;;;38.30;7.05;;;;;;;;;;5045809;28;20874;-42
2022/11/03 09:53:13;;;;;;;46.60;7.38;;;;;;;;;;5048199;28;20114;-42
2022/11/03 09:55:40;;;;;;;44.17;6.68;;;;;;;;;;5046751;28;20047;-45
2022/11/03 09:58:12;;;;;;;40.80;6.43;;;;;;;;;;5044561;28;20115;-42
2022/11/03 10:00:39;;;;;;;56.47;8.13;;;;;;;;;;5044474;28;20501;-41
2022/11/03 10:03:09;;;;;;;40.50;6.03;;;;;;;;;;5046829;28;20517;-43
2022/11/03 10:05:36;;;;;;;27.98;4.78;;;;;;;;;;5045775;28;20056;-44
2022/11/03 10:08:04;;;;;;;59.60;7.93;;;;;;;;;;5046452;28;20053;-42
2022/11/03 10:10:32;;;;;;;24.55;4.22;;;;;;;;;;5044306;28;20041;-43
2022/11/03 10:12:59;;;;;;;33.60;5.38;;;;;;;;;;5046435;28;20033;-40
2022/11/03 10:15:26;;;;;;;34.03;6.47;;;;;;;;;;5044437;28;20452;-46
2022/11/03 10:17:53;;;;;;;46.08;7.57;;;;;;;;;;5042724;28;20038;-43
2022/11/03 10:20:21;;;;;;;36.75;5.88;;;;;;;;;;5047932;28;20044;-42
2022/11/03 10:22:51;;;;;;;34.05;6.75;;;;;;;;;;5045957;28;20045;-42
2022/11/03 10:25:27;;;;;;;34.58;7.18;;;;;;;;;;5047047;28;20047;-41
2022/11/03 10:28:13;;;;;;;34.05;6.00;;;;;;;;;;5045786;28;20119;-43
2022/11/03 10:30:56;;;;;;;26.85;5.13;;;;;;;;;;5047112;28;20136;-41
2022/11/03 10:33:41;;;;;;;36.65;5.65;;;;;;;;;;5046032;28;20033;-44
2022/11/03 10:36:13;;;;;;;43.00;6.80;;;;;;;;;;5045040;28;20048;-43
2022/11/03 10:38:42;;;;;;;41.57;6.50;;;;;;;;;;5042237;28;20395;-43
2022/11/03 10:41:10;;;;;;;37.95;5.25;;;;;;;;;;5047146;28;20294;-42
2022/11/03 10:43:37;;;;;;;27.42;5.53;;;;;;;;;;5045905;28;20041;-41
2022/11/03 10:46:11;;;;;;;33.67;5.35;;;;;;;;;;5045090;28;20045;-41
2022/11/03 10:49:01;;;;;;;34.97;4.97;;;;;;;;;;5044622;28;20108;-42
2022/11/03 10:51:30;;;;;;;19.45;3.67;;;;;;;;;;5045392;28;20489;-42
2022/11/03 10:53:57;;;;;;;54.45;6.18;;;;;;;;;;5045030;28;20098;-40
2022/11/03 10:56:24;;;;;;;45.25;5.18;;;;;;;;;;5045205;28;20071;-42
2022/11/03 10:58:50;;;;;;;36.25;4.22;;;;;;;;;;5045545;28;20072;-43
2022/11/03 11:01:17;;;;;;;39.00;5.88;;;;;;;;;;5047087;28;20041;-43
2022/11/03 11:03:44;;;;;;;32.85;5.50;;;;;;;;;;5045024;28;20511;-44
2022/11/03 11:06:18;;;;;;;38.70;5.15;;;;;;;;;;5045037;28;20069;-46
2022/11/03 11:08:45;;;;;;;38.85;5.55;;;;;;;;;;5042013;28;20037;-41
2022/11/03 11:11:13;;;;;;;50.38;6.25;;;;;;;;;;5042662;28;20441;-41
2022/11/03 11:13:40;;;;;;;34.42;5.18;;;;;;;;;;5047941;28;20417;-43
2022/11/03 11:16:27;;;;;;;46.45;6.15;;;;;;;;;;5045620;28;20504;-42
2022/11/03 11:18:53;;;;;;;34.33;5.22;;;;;;;;;;5043236;28;20091;-44
2022/11/03 11:21:20;;;;;;;37.00;5.72;;;;;;;;;;5044774;28;20089;-42
2022/11/03 11:23:47;;;;;;;45.85;6.25;;;;;;;;;;5043551;28;20507;-42
2022/11/03 11:26:25;;;;;;;27.40;4.90;;;;;;;;;;5046106;28;20051;-41
2022/11/03 11:29:08;;;;;;;28.75;4.90;;;;;;;;;;5044849;28;20045;-42
2022/11/03 11:31:35;;;;;;;31.08;5.32;;;;;;;;;;5044992;28;20053;-44
2022/11/03 11:34:08;;;;;;;48.08;7.32;;;;;;;;;;5044200;28;20047;-41
2022/11/03 11:36:38;;;;;;;51.33;12.38;;;;;;;;;;5045134;28;20037;-43
2022/11/03 11:39:14;;;;;;;36.20;6.75;;;;;;;;;;5043609;28;20507;-42
2022/11/03 11:41:59;;;;;;;49.53;7.30;;;;;;;;;;5041710;28;20441;-44
2022/11/03 11:45:00;;;;;;;39.92;9.48;;;;;;;;;;5044518;28;20098;-43
2022/11/03 11:47:30;;;;;;;28.92;4.38;;;;;;;;;;5044219;28;20148;-44
2022/11/03 11:50:05;;;;;;;44.00;6.20;;;;;;;;;;5043594;28;20046;-43
2022/11/03 11:52:41;;;;;;;29.55;4.57;;;;;;;;;;5045313;28;20041;-45
2022/11/03 11:55:20;;;;;;;41.50;5.68;;;;;;;;;;5044996;28;20716;-47
2022/11/03 11:57:47;;;;;;;32.70;5.53;;;;;;;;;;5041045;28;20123;-42
2022/11/03 12:00:24;;;;;;;54.25;7.28;;;;;;;;;;5044977;28;20056;-44
2022/11/03 12:02:51;;;;;;;38.00;5.50;;;;;;;;;;5042491;28;20069;-43
2022/11/03 12:05:23;;;;;;;32.33;4.88;;;;;;;;;;5044877;28;20048;-44
2022/11/03 12:07:49;;;;;;;44.40;5.82;;;;;;;;;;5043352;28;20505;-42
2022/11/03 12:10:17;;;;;;;28.17;4.38;;;;;;;;;;5042031;28;20037;-41
2022/11/03 12:12:44;;;;;;;42.67;5.65;;;;;;;;;;5044161;28;20124;-47
2022/11/03 12:15:29;;;;;;;55.50;6.80;;;;;;;;;;5040743;28;20041;-42
2022/11/03 12:17:55;;;;;;;43.85;5.93;;;;;;;;;;5040885;28;20052;-46
2022/11/03 12:20:35;;;;;;;38.63;4.95;;;;;;;;;;5044158;28;20459;-44
2022/11/03 12:23:01;;;;;;;30.13;4.82;;;;;;;;;;5044252;28;20112;-42
2022/11/03 12:25:33;;;;;;;24.98;6.57;;;;;;;;;;5042451;28;20033;-42
2022/11/03 12:27:59;;;;;;;52.03;6.82;;;;;;;;;;5042827;28;20032;-44
2022/11/03 12:30:26;;;;;;;22.17;3.97;;;;;;;;;;5043311;28;20045;-45
2022/11/03 12:32:52;;;;;;;48.92;8.25;;;;;;;;;;5042123;28;20041;-44
2022/11/03 12:35:19;;;;;;;47.13;7.40;;;;;;;;;;5044448;28;20044;-42
2022/11/03 12:37:46;;;;;;;38.38;5.80;;;;;;;;;;5044240;28;20059;-41
2022/11/03 12:40:13;;;;;;;44.17;5.85;;;;;;;;;;5044666;28;20040;-41
2022/11/03 12:42:39;;;;;;;41.58;5.53;;;;;;;;;;5041566;28;20562;-42
2022/11/03 12:45:07;;;;;;;42.03;5.93;;;;;;;;;;5040814;28;20041;-41
2022/11/03 12:47:34;;;;;;;36.33;5.10;;;;;;;;;;5043977;28;20464;-42
2022/11/03 12:50:00;;;;;;;58.65;7.28;;;;;;;;;;5043068;28;20067;-42
2022/11/03 12:52:27;;;;;;;20.20;4.15;;;;;;;;;;5049323;28;20467;-43
2022/11/03 12:54:53;;;;;;;28.33;4.15;;;;;;;;;;5047102;28;20397;-41
2022/11/03 12:57:20;;;;;;;35.22;4.57;;;;;;;;;;5048402;28;20033;-41
2022/11/03 12:59:46;;;;;;;43.03;5.90;;;;;;;;;;5048134;28;20044;-41
2022/11/03 13:02:13;;;;;;;62.05;7.65;;;;;;;;;;5048432;28;20099;-42
2022/11/03 13:04:39;;;;;;;37.85;5.50;;;;;;;;;;5047554;28;20405;-47
2022/11/03 13:07:06;;;;;;;28.45;4.45;;;;;;;;;;5046938;28;20052;-47
2022/11/03 13:09:34;;;;;;;38.08;5.72;;;;;;;;;;5045850;28;20096;-41
2022/11/03 13:14:46;;;;;;;27.77;3.83;;;;;;;;;;5041463;28;20041;-47
2022/11/03 13:17:14;;;;;;;45.65;5.35;;;;;;;;;;5048356;28;20041;-45
2022/11/03 13:19:40;;;;;;;39.25;8.30;;;;;;;;;;5047780;28;20041;-44
2022/11/03 13:22:07;;;;;;;50.55;9.30;;;;;;;;;;5046893;28;20056;-44
2022/11/03 13:24:33;;;;;;;46.70;8.80;;;;;;;;;;5046806;28;20037;-43
2022/11/03 13:27:00;;;;;;;44.47;7.35;;;;;;;;;;5045745;28;20656;-44
2022/11/03 13:29:26;;;;;;;28.42;5.32;;;;;;;;;;5046991;28;20029;-44
2022/11/03 13:32:00;;;;;;;48.60;6.90;;;;;;;;;;5046841;28;20099;-43
2022/11/03 13:34:27;;;;;;;36.10;4.90;;;;;;;;;;5049430;28;20041;-43
2022/11/03 13:36:54;;;;;;;30.10;7.40;;;;;;;;;;5045134;28;20044;-43
2022/11/03 13:39:20;;;;;;;40.80;7.47;;;;;;;;;;5045690;28;20037;-47
2022/11/03 13:41:47;;;;;;;40.58;5.47;;;;;;;;;;5045583;28;20106;-43
2022/11/03 13:44:13;;;;;;;40.97;5.45;;;;;;;;;;5050924;28;20045;-43
2022/11/03 13:46:40;;;;;;;33.53;4.25;;;;;;;;;;5047350;28;20493;-42
2022/11/03 13:49:06;;;;;;;44.97;5.30;;;;;;;;;;5046268;28;20051;-43
2022/11/03 13:51:52;;;;;;;25.33;3.53;;;;;;;;;;5044326;28;20041;-43
2022/11/03 13:54:19;;;;;;;34.83;4.47;;;;;;;;;;5043387;28;20060;-42
2022/11/03 13:57:06;;;;;;;34.70;5.22;;;;;;;;;;5046564;28;20107;-44
2022/11/03 13:59:52;;;;;;;47.35;5.90;;;;;;;;;;5041333;28;20030;-45
2022/11/03 14:02:19;;;;;;;52.25;5.75;;;;;;;;;;5047212;28;20979;-44
2022/11/03 14:05:06;;;;;;;25.15;3.92;;;;;;;;;;5045944;28;20042;-43
2022/11/03 14:07:36;;;;;;;61.40;6.72;;;;;;;;;;5045247;28;20077;-43
2022/11/03 14:10:03;;;;;;;45.92;5.57;;;;;;;;;;5046106;28;20043;-42
2022/11/03 14:12:30;;;;;;;26.88;3.95;;;;;;;;;;5043522;28;20075;-46
2022/11/03 14:15:04;;;;;;;30.20;4.80;;;;;;;;;;5043987;28;20095;-42
2022/11/03 14:17:31;;;;;;;23.80;3.97;;;;;;;;;;5047283;28;20110;-44
2022/11/03 14:19:58;;;;;;;35.97;6.05;;;;;;;;;;5045665;28;20046;-42
2022/11/03 14:22:30;;;;;;;47.55;5.90;;;;;;;;;;5046446;28;20096;-44
2022/11/03 14:24:56;;;;;;;37.92;4.82;;;;;;;;;;5045098;28;20037;-43
2022/11/03 14:27:23;;;;;;;22.92;3.60;;;;;;;;;;5045442;28;20040;-45
2022/11/03 14:29:49;;;;;;;58.05;7.60;;;;;;;;;;5043501;28;20383;-43
2022/11/03 14:32:16;;;;;;;38.97;5.47;;;;;;;;;;5046190;28;20041;-43
2022/11/03 14:34:43;;;;;;;34.00;5.07;;;;;;;;;;5047994;28;20040;-47
2022/11/03 14:37:10;;;;;;;45.78;6.10;;;;;;;;;;5045681;28;20480;-45
2022/11/03 14:39:37;;;;;;;53.58;6.20;;;;;;;;;;5042881;28;20036;-44
2022/11/03 14:42:05;;;;;;;56.40;6.72;;;;;;;;;;5044808;28;20060;-41
2022/11/03 14:44:35;;;;;;;43.85;5.40;;;;;;;;;;5046244;28;20049;-47
2022/11/03 14:47:03;;;;;;;31.15;4.75;;;;;;;;;;5046696;28;20048;-46
2022/11/03 14:49:30;;;;;;;26.50;3.90;;;;;;;;;;5048803;28;20033;-45
2022/11/03 14:51:57;;;;;;;68.53;9.18;;;;;;;;;;5043724;28;20037;-41
2022/11/03 14:54:23;;;;;;;32.65;5.68;;;;;;;;;;5042876;28;20033;-42
2022/11/03 14:56:50;;;;;;;60.03;8.60;;;;;;;;;;5046450;28;20037;-44